Time;durP1;ratioP1;P1;durP2;ratioP2;P2;SDS_P1;SDS_P2;PMS_P1;PMS_P2;Temp;Humidity;BMP_temperature;BMP_pressure;BME280_temperature;BME280_humidity;BME280_pressure;Samples;Min_cycle;Max_cycle;Signal;HPM_P1;HPM_P2
2022/05/22 00:00:11;;;;;;;21.83;17.88;;;8.90;99.90;;;;;;5010835;28;20107;-74
2022/05/22 00:02:42;;;;;;;31.60;19.02;;;8.90;99.90;;;;;;5011468;28;20129;-74
2022/05/22 00:05:11;;;;;;;25.60;17.90;;;8.90;99.90;;;;;;5011122;28;20389;-74
2022/05/22 00:07:38;;;;;;;26.40;18.52;;;8.80;99.90;;;;;;5006785;28;20060;-74
2022/05/22 00:10:05;;;;;;;26.52;18.55;;;8.80;99.90;;;;;;4991511;28;20046;-74
2022/05/22 00:12:32;;;;;;;23.33;18.30;;;8.60;99.90;;;;;;4997110;28;20046;-74
2022/05/22 00:14:59;;;;;;;23.48;16.23;;;8.60;99.90;;;;;;5001229;28;20108;-74
2022/05/22 00:17:26;;;;;;;21.98;16.10;;;8.50;99.90;;;;;;5001112;28;20045;-73
2022/05/22 00:19:52;;;;;;;20.00;17.08;;;8.40;99.90;;;;;;5010981;28;20873;-75
2022/05/22 00:22:19;;;;;;;21.30;18.50;;;8.40;99.90;;;;;;5010633;28;20054;-74
2022/05/22 00:24:46;;;;;;;22.35;18.50;;;8.30;99.90;;;;;;5005234;28;20535;-74
2022/05/22 00:27:13;;;;;;;21.65;17.02;;;8.40;99.90;;;;;;5034683;28;20038;-74
2022/05/22 00:29:39;;;;;;;23.25;17.55;;;8.50;99.90;;;;;;5011972;28;20535;-74
2022/05/22 00:32:07;;;;;;;27.98;16.83;;;8.40;99.90;;;;;;5013343;28;20287;-74
2022/05/22 00:34:36;;;;;;;29.95;17.73;;;8.30;99.90;;;;;;5012065;28;20504;-75
2022/05/22 00:37:04;;;;;;;27.35;15.70;;;8.20;99.90;;;;;;5011425;28;20080;-74
2022/05/22 00:39:31;;;;;;;23.55;15.77;;;8.10;99.90;;;;;;5002030;28;20564;-74
2022/05/22 00:41:58;;;;;;;21.75;15.45;;;8.10;99.90;;;;;;4993465;28;20085;-74
2022/05/22 00:44:25;;;;;;;19.63;14.50;;;8.00;99.90;;;;;;5001375;28;20117;-74
2022/05/22 00:46:53;;;;;;;18.25;14.20;;;8.00;99.90;;;;;;4984526;28;20056;-74
2022/05/22 00:49:27;;;;;;;19.20;15.00;;;8.00;99.90;;;;;;5011545;28;20496;-74
2022/05/22 00:51:59;;;;;;;26.67;15.40;;;8.10;99.90;;;;;;4991174;28;20505;-74
2022/05/22 00:54:41;;;;;;;22.88;16.95;;;8.20;99.90;;;;;;4993285;28;20476;-72
2022/05/22 00:57:15;;;;;;;22.67;15.55;;;8.10;99.90;;;;;;5000805;28;20073;-74
2022/05/22 00:59:47;;;;;;;23.98;15.50;;;8.20;99.90;;;;;;5008417;28;20050;-74
2022/05/22 01:02:15;;;;;;;26.05;15.65;;;8.20;99.90;;;;;;5008040;28;20042;-74
2022/05/22 01:04:44;;;;;;;23.50;15.45;;;8.10;99.90;;;;;;5007957;28;20046;-75
2022/05/22 01:07:12;;;;;;;20.25;14.77;;;8.10;99.90;;;;;;5010567;28;20108;-75
2022/05/22 01:09:39;;;;;;;26.88;15.85;;;8.10;99.90;;;;;;5005218;28;20049;-74
2022/05/22 01:12:16;;;;;;;19.70;15.48;;;8.20;99.90;;;;;;4991385;28;20042;-74
2022/05/22 01:14:48;;;;;;;21.17;15.52;;;8.10;99.90;;;;;;5028790;22;20060;-70
2022/05/22 01:17:15;;;;;;;21.77;15.38;;;8.20;99.90;;;;;;5026053;28;20037;-70
2022/05/22 01:19:57;;;;;;;18.95;15.65;;;8.20;99.90;;;;;;5004667;28;20038;-70
2022/05/22 01:22:26;;;;;;;20.88;15.88;;;8.20;99.90;;;;;;4994910;28;20164;-71
2022/05/22 01:24:54;;;;;;;24.00;15.07;;;8.10;99.90;;;;;;4997572;28;20586;-71
2022/05/22 01:27:22;;;;;;;29.70;14.98;;;8.10;99.90;;;;;;5006985;28;20042;-71
2022/05/22 01:30:04;;;;;;;22.15;14.98;;;8.10;99.90;;;;;;5006825;28;20057;-71
2022/05/22 01:32:34;;;;;;;21.08;15.10;;;8.10;99.90;;;;;;5017773;28;20054;-70
2022/05/22 01:35:05;;;;;;;16.63;14.63;;;7.90;99.90;;;;;;4987394;28;20402;-70
2022/05/22 01:37:31;;;;;;;19.48;14.85;;;7.80;99.90;;;;;;4985828;28;20051;-70
2022/05/22 01:39:59;;;;;;;18.48;15.27;;;7.80;99.90;;;;;;5022436;28;20069;-71
2022/05/22 01:42:28;;;;;;;20.70;16.08;;;7.80;99.90;;;;;;4989632;28;20037;-71
2022/05/22 01:44:56;;;;;;;18.63;16.75;;;7.70;99.90;;;;;;5021760;28;20080;-70
2022/05/22 01:47:23;;;;;;;19.08;15.63;;;7.80;99.90;;;;;;5014394;28;20038;-71
2022/05/22 01:49:50;;;;;;;23.33;17.00;;;7.70;99.90;;;;;;5005260;28;20129;-69
2022/05/22 01:52:17;;;;;;;19.80;15.90;;;7.60;99.90;;;;;;5005200;28;20779;-70
2022/05/22 01:54:43;;;;;;;18.13;16.33;;;7.60;99.90;;;;;;5021089;28;20516;-70
2022/05/22 01:57:11;;;;;;;18.80;16.77;;;7.60;99.90;;;;;;5005016;28;20065;-71
2022/05/22 01:59:38;;;;;;;18.70;15.98;;;7.50;99.90;;;;;;5004872;28;20042;-70
2022/05/22 02:02:25;;;;;;;20.38;16.58;;;7.50;99.90;;;;;;5005293;28;20412;-71
2022/05/22 02:04:55;;;;;;;18.27;16.20;;;7.50;99.90;;;;;;4989650;28;20131;-71
2022/05/22 02:10:09;;;;;;;26.55;17.38;;;7.40;99.90;;;;;;5006103;28;20038;-70
2022/05/22 02:12:36;;;;;;;27.15;17.88;;;7.40;99.90;;;;;;5005756;28;20598;-71
2022/05/22 02:15:06;;;;;;;25.05;19.70;;;7.50;99.90;;;;;;5010485;28;20389;-70
2022/05/22 02:17:33;;;;;;;21.98;18.83;;;7.50;99.90;;;;;;5017021;28;20103;-70
2022/05/22 02:20:00;;;;;;;23.92;18.08;;;7.40;99.90;;;;;;5022434;28;20091;-70
2022/05/22 02:22:46;;;;;;;30.08;19.15;;;7.30;99.90;;;;;;5004469;28;20108;-70
2022/05/22 02:25:16;;;;;;;23.25;19.25;;;7.40;99.90;;;;;;5003962;28;20129;-70
2022/05/22 02:27:43;;;;;;;21.05;18.85;;;7.60;99.90;;;;;;4988248;28;20056;-70
2022/05/22 02:30:13;;;;;;;24.02;18.85;;;7.40;99.90;;;;;;5004458;28;20050;-69
2022/05/22 02:32:39;;;;;;;21.02;17.83;;;7.40;99.90;;;;;;4987729;28;20056;-69
2022/05/22 02:35:09;;;;;;;20.45;17.90;;;7.20;99.90;;;;;;5002653;28;20056;-70
2022/05/22 02:37:42;;;;;;;24.02;17.88;;;7.30;99.90;;;;;;5004334;28;20046;-71
2022/05/22 02:40:24;;;;;;;26.42;19.00;;;7.20;99.90;;;;;;5001020;28;20037;-70
2022/05/22 02:42:54;;;;;;;23.90;19.00;;;7.10;99.90;;;;;;5003844;28;20530;-70
2022/05/22 02:45:28;;;;;;;22.80;20.17;;;7.00;99.90;;;;;;5004055;28;20042;-70
2022/05/22 02:48:02;;;;;;;22.23;19.58;;;7.00;99.90;;;;;;5013110;28;20049;-70
2022/05/22 02:50:31;;;;;;;27.35;21.15;;;6.90;99.90;;;;;;5016119;28;20451;-70
2022/05/22 02:53:08;;;;;;;24.15;19.95;;;6.90;99.90;;;;;;5003040;28;20112;-70
2022/05/22 02:55:54;;;;;;;23.73;20.10;;;6.90;99.90;;;;;;5004089;28;20048;-70
2022/05/22 02:58:30;;;;;;;23.38;20.73;;;7.00;99.90;;;;;;5004050;28;20042;-70
2022/05/22 03:00:56;;;;;;;28.38;20.67;;;7.20;99.90;;;;;;5002375;28;20906;-72
2022/05/22 03:03:23;;;;;;;29.67;20.52;;;7.20;99.90;;;;;;5004115;28;20057;-72
2022/05/22 03:08:35;;;;;;;25.30;18.70;;;7.20;99.90;;;;;;5003721;28;20073;-70
2022/05/22 03:11:04;;;;;;;25.75;17.80;;;7.10;99.90;;;;;;5001445;28;20739;-70
2022/05/22 03:13:31;;;;;;;26.05;17.67;;;7.10;99.90;;;;;;5003165;28;20060;-73
2022/05/22 03:15:58;;;;;;;18.48;14.48;;;7.20;99.90;;;;;;5007781;28;20047;-71
2022/05/22 03:18:40;;;;;;;21.00;16.48;;;7.20;99.90;;;;;;5003533;28;20103;-70
2022/05/22 03:21:16;;;;;;;23.40;17.33;;;7.20;99.90;;;;;;5007521;28;20459;-70
2022/05/22 03:23:43;;;;;;;23.73;17.63;;;7.20;99.90;;;;;;5007673;28;20042;-71
2022/05/22 03:26:10;;;;;;;27.13;18.00;;;7.30;99.90;;;;;;5003233;28;20096;-71
2022/05/22 03:28:37;;;;;;;24.77;17.15;;;7.10;99.90;;;;;;5002623;28;20571;-70
2022/05/22 03:31:04;;;;;;;21.90;16.75;;;7.10;99.90;;;;;;5002148;28;20058;-73
2022/05/22 03:33:31;;;;;;;26.67;17.17;;;7.10;99.90;;;;;;5002560;28;20319;-70
2022/05/22 03:35:58;;;;;;;19.15;15.05;;;7.00;99.90;;;;;;5002861;28;20080;-70
2022/05/22 03:38:25;;;;;;;21.60;15.93;;;6.80;99.90;;;;;;5002671;28;20054;-73
2022/05/22 03:41:01;;;;;;;19.95;16.33;;;6.80;99.90;;;;;;4984978;28;20050;-70
2022/05/22 03:43:32;;;;;;;18.75;16.80;;;6.80;99.90;;;;;;5001626;28;20500;-72
2022/05/22 03:45:59;;;;;;;22.27;17.13;;;6.90;99.90;;;;;;5010677;28;20139;-70
2022/05/22 03:48:27;;;;;;;22.02;17.25;;;6.80;99.90;;;;;;5036415;28;20629;-70
2022/05/22 03:50:54;;;;;;;18.08;16.15;;;6.80;99.90;;;;;;5010333;28;20254;-69
2022/05/22 03:53:25;;;;;;;21.55;17.08;;;6.70;99.90;;;;;;5002142;28;20133;-72
2022/05/22 03:55:53;;;;;;;24.13;17.80;;;6.70;99.90;;;;;;5002342;28;20085;-70
2022/05/22 03:58:26;;;;;;;20.33;16.55;;;6.60;99.90;;;;;;5002877;28;20148;-71
2022/05/22 04:00:52;;;;;;;20.58;16.70;;;6.60;99.90;;;;;;5001674;28;20053;-70
2022/05/22 04:03:19;;;;;;;23.77;17.00;;;6.40;99.90;;;;;;5001676;28;20050;-71
2022/05/22 04:05:50;;;;;;;21.52;17.58;;;6.50;99.90;;;;;;4986199;28;20049;-70
2022/05/22 04:08:17;;;;;;;24.80;17.90;;;6.70;99.90;;;;;;4984783;28;20510;-71
2022/05/22 04:10:49;;;;;;;18.30;16.25;;;6.80;99.90;;;;;;5001215;28;20077;-70
2022/05/22 04:13:16;;;;;;;21.27;16.15;;;6.60;99.90;;;;;;5001617;28;20046;-71
2022/05/22 04:15:44;;;;;;;22.77;16.77;;;6.50;99.90;;;;;;5003438;28;20120;-71
2022/05/22 04:18:10;;;;;;;23.92;17.27;;;6.60;99.90;;;;;;5017558;28;20049;-71
2022/05/22 04:20:37;;;;;;;21.35;16.52;;;6.80;99.90;;;;;;5020459;28;20103;-72
2022/05/22 04:26:20;;;;;;;32.08;19.08;;;6.90;99.90;;;;;;5018354;28;20143;-71
2022/05/22 04:28:47;;;;;;;25.48;18.35;;;7.00;99.90;;;;;;5002376;28;20112;-71
2022/05/22 04:31:22;;;;;;;39.13;21.42;;;6.90;99.90;;;;;;5001673;28;20133;-71
2022/05/22 04:34:21;;;;;;;30.10;18.63;;;6.90;99.90;;;;;;4990502;28;20160;-71
2022/05/22 04:36:49;;;;;;;27.58;18.13;;;7.20;99.90;;;;;;5000142;28;20143;-71
2022/05/22 04:39:35;;;;;;;26.40;18.30;;;7.20;99.90;;;;;;5001918;28;20378;-71
2022/05/22 04:42:06;;;;;;;30.10;18.10;;;7.20;99.90;;;;;;5002028;28;20152;-71
2022/05/22 04:44:33;;;;;;;23.77;18.02;;;7.30;99.90;;;;;;5019102;28;20049;-71
2022/05/22 04:47:20;;;;;;;30.50;17.33;;;7.30;99.90;;;;;;5004316;28;20503;-72
2022/05/22 04:50:06;;;;;;;;;;;7.40;99.90;;;;;;5009938;28;20420;-70
2022/05/22 04:52:34;;;;;;;25.48;17.63;;;7.50;99.90;;;;;;5008848;28;19997;-71
2022/05/22 04:55:01;;;;;;;21.13;17.63;;;7.60;99.90;;;;;;5013430;28;20038;-73
2022/05/22 04:57:28;;;;;;;25.17;19.35;;;7.80;99.90;;;;;;4986801;28;20544;-70
2022/05/22 04:59:55;;;;;;;24.73;17.83;;;8.00;99.90;;;;;;4986605;28;20058;-72
2022/05/22 05:02:23;;;;;;;20.00;17.98;;;8.40;99.90;;;;;;4985432;28;20519;-73
2022/05/22 05:04:56;;;;;;;21.75;18.17;;;8.60;99.90;;;;;;4984821;28;20456;-69
2022/05/22 05:07:27;;;;;;;21.90;19.60;;;9.00;99.90;;;;;;5003400;28;20530;-73
2022/05/22 05:10:14;;;;;;;23.05;20.77;;;9.30;99.90;;;;;;5005711;28;20045;-70
2022/05/22 05:12:51;;;;;;;24.65;22.60;;;9.80;99.90;;;;;;5005433;28;20045;-73
2022/05/22 05:15:29;;;;;;;22.55;20.65;;;10.20;99.90;;;;;;5009139;28;20276;-72
2022/05/22 05:18:05;;;;;;;23.73;21.45;;;10.40;99.90;;;;;;5019445;28;20397;-70
2022/05/22 05:20:35;;;;;;;23.23;21.42;;;10.60;99.90;;;;;;5023648;28;20759;-70
2022/05/22 05:23:06;;;;;;;25.17;23.15;;;11.00;99.90;;;;;;5027042;28;20052;-73
2022/05/22 05:25:46;;;;;;;26.00;23.85;;;11.10;99.90;;;;;;5005214;28;20058;-70
2022/05/22 05:28:13;;;;;;;27.67;25.13;;;11.60;99.90;;;;;;5004462;28;20528;-71
2022/05/22 05:30:41;;;;;;;26.10;23.98;;;11.90;99.90;;;;;;5004038;28;20057;-70
2022/05/22 05:33:08;;;;;;;27.08;24.67;;;12.00;99.90;;;;;;5003747;28;20089;-71
2022/05/22 05:35:58;;;;;;;29.15;26.73;;;12.10;99.90;;;;;;4967634;28;20050;-70
2022/05/22 05:38:50;;;;;;;30.33;27.63;;;12.50;99.90;;;;;;4987690;28;20668;-73
2022/05/22 05:41:48;;;;;;;31.33;28.38;;;13.00;99.90;;;;;;4973937;28;20046;-72
2022/05/22 05:44:17;;;;;;;31.10;28.42;;;12.90;99.90;;;;;;5010720;28;20568;-71
2022/05/22 05:46:51;;;;;;;29.70;27.08;;;12.80;99.90;;;;;;5028180;28;20049;-70
2022/05/22 05:49:18;;;;;;;28.42;25.63;;;12.90;99.90;;;;;;5003892;28;20045;-70
2022/05/22 05:51:50;;;;;;;29.08;26.20;;;13.10;99.90;;;;;;5001448;28;20046;-71
2022/05/22 05:54:34;;;;;;;28.25;25.70;;;13.00;99.90;;;;;;5003306;28;20408;-72
2022/05/22 05:57:29;;;;;;;29.23;26.55;;;13.00;99.90;;;;;;5003791;28;20124;-70
2022/05/22 05:59:55;;;;;;;27.63;25.40;;;13.30;99.90;;;;;;5003078;28;20046;-70
2022/05/22 06:02:23;;;;;;;29.92;27.00;;;13.60;99.90;;;;;;5003015;28;20038;-70
2022/05/22 06:04:50;;;;;;;28.95;26.70;;;13.90;99.90;;;;;;5002553;28;20773;-73
2022/05/22 06:07:17;;;;;;;29.10;26.33;;;14.30;99.90;;;;;;5004965;28;20081;-70
2022/05/22 06:09:44;;;;;;;29.02;26.63;;;14.70;99.90;;;;;;5005367;28;20053;-70
2022/05/22 06:12:10;;;;;;;29.83;27.15;;;15.20;99.90;;;;;;5000941;28;20081;-70
2022/05/22 06:14:48;;;;;;;27.35;25.25;;;15.60;99.90;;;;;;5011160;28;20053;-70
2022/05/22 06:17:15;;;;;;;28.45;25.92;;;16.00;99.90;;;;;;5014381;28;20092;-72
2022/05/22 06:19:59;;;;;;;28.83;26.50;;;16.10;99.90;;;;;;5023008;28;20038;-70
2022/05/22 06:22:36;;;;;;;30.30;27.73;;;16.20;99.90;;;;;;5013598;28;20042;-70
2022/05/22 06:25:09;;;;;;;28.83;26.55;;;16.50;99.90;;;;;;5002195;28;20100;-70
2022/05/22 06:28:03;;;;;;;28.23;26.02;;;16.80;99.90;;;;;;5003743;28;20053;-70
2022/05/22 06:30:59;;;;;;;27.35;24.88;;;16.60;99.90;;;;;;4966171;28;20051;-70
2022/05/22 06:33:40;;;;;;;27.58;25.58;;;16.60;99.90;;;;;;4988562;28;20144;-70
2022/05/22 06:36:36;;;;;;;28.27;25.77;;;17.10;99.90;;;;;;4999608;28;20436;-70
2022/05/22 06:42:39;;;;;;;28.25;26.02;;;17.40;99.90;;;;;;5002456;28;19944;-71
2022/05/22 06:45:25;;;;;;;27.15;25.35;;;17.30;99.90;;;;;;5017597;28;20555;-70
2022/05/22 06:47:57;;;;;;;28.27;25.90;;;17.30;99.90;;;;;;5011656;28;20047;-70
2022/05/22 06:50:25;;;;;;;27.40;25.35;;;17.50;99.90;;;;;;5016988;28;20528;-70
2022/05/22 06:53:14;;;;;;;27.73;25.67;;;17.40;99.90;;;;;;5018660;28;20172;-71
2022/05/22 06:55:47;;;;;;;27.65;25.73;;;17.20;99.90;;;;;;5002371;28;20104;-71
2022/05/22 06:58:49;;;;;;;26.98;24.85;;;17.30;99.90;;;;;;4942031;29;20055;-70
2022/05/22 07:01:31;;;;;;;28.13;25.65;;;17.50;99.90;;;;;;4996860;28;20108;-70
2022/05/22 07:04:08;;;;;;;28.55;26.15;;;17.50;99.90;;;;;;5002861;28;20429;-70
2022/05/22 07:06:54;;;;;;;27.55;25.40;;;17.70;99.90;;;;;;5004334;28;20045;-70
2022/05/22 07:09:56;;;;;;;27.58;25.60;;;17.90;99.90;;;;;;4956736;28;20129;-70
2022/05/22 07:12:59;;;;;;;26.88;24.63;;;18.00;99.90;;;;;;4944605;28;20477;-70
2022/05/22 07:15:59;;;;;;;27.50;25.67;;;18.00;99.90;;;;;;5005657;23;20315;-75
2022/05/22 07:18:54;;;;;;;27.42;25.58;;;18.50;99.90;;;;;;4999057;28;20034;-74
2022/05/22 07:21:41;;;;;;;28.55;26.05;;;18.40;99.90;;;;;;5020694;28;20500;-74
2022/05/22 07:24:28;;;;;;;28.23;26.00;;;18.20;99.90;;;;;;4975464;28;20136;-74
2022/05/22 07:27:33;;;;;;;28.60;26.40;;;18.20;99.90;;;;;;4963250;28;20051;-74
2022/05/22 07:30:08;;;;;;;26.88;24.92;;;18.10;99.90;;;;;;4944101;28;20599;-74
2022/05/22 07:32:55;;;;;;;29.77;27.45;;;18.20;99.90;;;;;;4964407;28;20062;-75
2022/05/22 07:35:57;;;;;;;27.67;25.42;;;18.20;99.90;;;;;;4965688;28;20050;-75
2022/05/22 07:38:43;;;;;;;26.60;24.67;;;17.30;99.90;;;;;;4983641;28;20088;-75
2022/05/22 07:41:24;;;;;;;28.15;25.90;;;17.70;99.90;;;;;;4983754;28;20042;-75
2022/05/22 07:44:08;;;;;;;28.40;26.55;;;18.20;99.90;;;;;;4982331;28;20046;-75
2022/05/22 07:46:45;;;;;;;27.27;25.42;;;18.60;99.90;;;;;;5002627;28;20050;-74
2022/05/22 07:52:48;;;;;;;26.98;24.95;;;19.20;99.90;;;;;;4973829;28;20054;-75
2022/05/22 07:55:41;;;;;;;25.55;23.45;;;19.30;99.90;;;;;;4991647;28;20136;-75
2022/05/22 07:58:19;;;;;;;26.50;24.23;;;19.50;99.90;;;;;;4985507;28;20147;-75
2022/05/22 08:00:57;;;;;;;25.98;23.88;;;19.40;99.90;;;;;;4989397;28;20411;-75
2022/05/22 08:03:50;;;;;;;25.80;23.70;;;19.30;99.90;;;;;;4993939;28;20053;-75
2022/05/22 08:06:49;;;;;;;27.45;25.23;;;19.20;99.90;;;;;;4979952;28;20440;-75
2022/05/22 08:09:43;;;;;;;27.77;25.30;;;19.00;99.90;;;;;;4989616;28;20152;-75
2022/05/22 08:12:10;;;;;;;26.90;24.85;;;18.50;99.90;;;;;;4984269;28;20072;-73
2022/05/22 08:14:37;;;;;;;27.40;25.08;;;18.70;99.90;;;;;;4995077;28;20484;-76
2022/05/22 08:17:04;;;;;;;25.45;23.42;;;18.80;99.90;;;;;;4967245;28;20042;-75
2022/05/22 08:19:32;;;;;;;26.38;24.10;;;18.90;99.90;;;;;;4988161;28;20049;-75
2022/05/22 08:22:19;;;;;;;28.23;25.90;;;18.90;99.90;;;;;;4988692;28;20042;-76
2022/05/22 08:25:18;;;;;;;26.35;24.10;;;18.70;99.90;;;;;;4951275;28;20074;-75
2022/05/22 08:27:48;;;;;;;25.38;23.42;;;18.70;99.90;;;;;;4989209;28;20046;-74
2022/05/22 08:30:17;;;;;;;25.77;23.88;;;18.50;99.90;;;;;;4972590;28;20060;-75
2022/05/22 08:32:46;;;;;;;26.67;24.45;;;18.70;99.90;;;;;;4988291;28;20116;-76
2022/05/22 08:35:17;;;;;;;26.02;23.80;;;18.90;99.90;;;;;;4988715;28;20046;-76
2022/05/22 08:37:44;;;;;;;26.40;24.77;;;18.70;99.90;;;;;;4970323;28;20050;-75
2022/05/22 08:40:15;;;;;;;26.33;24.30;;;18.90;99.90;;;;;;4980345;28;20104;-75
2022/05/22 08:42:46;;;;;;;25.45;23.50;;;18.90;99.90;;;;;;4990366;28;20038;-75
2022/05/22 08:45:22;;;;;;;25.05;22.35;;;18.90;99.90;;;;;;4994088;28;20050;-76
2022/05/22 08:48:00;;;;;;;24.92;23.27;;;18.90;99.90;;;;;;4979522;28;20057;-74
2022/05/22 08:50:29;;;;;;;25.08;23.13;;;19.00;99.90;;;;;;4971049;28;20058;-76
2022/05/22 08:52:59;;;;;;;24.17;21.85;;;18.90;99.90;;;;;;5005752;28;20129;-72
2022/05/22 08:58:56;;;;;;;24.90;23.02;;;19.00;99.90;;;;;;4988032;28;20459;-73
2022/05/22 09:02:02;;;;;;;23.98;22.08;;;19.10;99.90;;;;;;4979369;28;20060;-74
2022/05/22 09:04:35;;;;;;;24.13;21.57;;;18.90;99.90;;;;;;5003459;28;20573;-73
2022/05/22 09:07:09;;;;;;;25.20;23.27;;;18.90;99.90;;;;;;5003329;28;20358;-73
2022/05/22 09:09:38;;;;;;;26.42;24.38;;;18.80;99.90;;;;;;4997349;28;20340;-72
2022/05/22 09:12:38;;;;;;;26.33;23.73;;;18.90;99.90;;;;;;5003805;28;20316;-72
2022/05/22 09:15:28;;;;;;;25.30;23.25;;;18.80;99.90;;;;;;5004809;28;20053;-73
2022/05/22 09:18:09;;;;;;;26.60;24.30;;;19.20;99.90;;;;;;5010303;28;20049;-73
2022/05/22 09:20:48;;;;;;;26.25;24.15;;;19.70;99.90;;;;;;5024704;28;20099;-73
2022/05/22 09:23:26;;;;;;;24.27;22.48;;;20.10;99.90;;;;;;5006878;28;20321;-73
2022/05/22 09:26:07;;;;;;;25.10;23.02;;;20.20;99.90;;;;;;4999784;28;20194;-73
2022/05/22 09:28:46;;;;;;;23.17;21.35;;;20.60;99.90;;;;;;4985717;28;20057;-72
2022/05/22 09:31:16;;;;;;;25.13;23.33;;;20.20;99.90;;;;;;4984168;28;20501;-73
2022/05/22 09:33:53;;;;;;;24.17;22.50;;;19.50;99.90;;;;;;5005269;28;20508;-74
2022/05/22 09:36:25;;;;;;;24.20;22.60;;;19.60;99.90;;;;;;4970012;28;20065;-72
2022/05/22 09:39:36;;;;;;;24.83;22.60;;;20.00;99.90;;;;;;4998086;28;20345;-72
2022/05/22 09:42:34;;;;;;;23.35;21.48;;;20.30;99.90;;;;;;4981996;28;20050;-74
2022/05/22 09:45:07;;;;;;;24.08;22.35;;;20.80;99.90;;;;;;5008448;28;20299;-73
2022/05/22 09:48:10;;;;;;;20.92;19.50;;;20.20;99.90;;;;;;4987081;28;20049;-73
2022/05/22 09:51:10;;;;;;;23.10;21.40;;;20.10;99.90;;;;;;4987994;28;20042;-75
2022/05/22 09:53:43;;;;;;;22.02;20.10;;;20.00;99.90;;;;;;5005760;28;20049;-76
2022/05/22 09:56:51;;;;;;;20.58;19.17;;;20.10;99.90;;;;;;4986710;28;20046;-76
2022/05/22 09:59:45;;;;;;;25.00;23.17;;;19.90;99.90;;;;;;4994918;28;20532;-76
2022/05/22 10:02:23;;;;;;;24.52;22.50;;;19.30;99.90;;;;;;5003533;28;20137;-76
2022/05/22 10:05:08;;;;;;;23.27;21.38;;;20.00;99.90;;;;;;4987556;28;20054;-76
2022/05/22 10:07:50;;;;;;;21.75;20.25;;;20.70;99.90;;;;;;5003074;28;20440;-75
2022/05/22 10:10:39;;;;;;;22.88;20.65;;;20.90;99.90;;;;;;4986565;28;20049;-76
2022/05/22 10:13:21;;;;;;;23.77;22.20;;;20.80;99.90;;;;;;4993576;28;20052;-75
2022/05/22 10:16:47;;;;;;;23.75;21.98;;;20.80;99.90;;;;;;5005742;28;20132;-76
2022/05/22 10:19:26;;;;;;;23.08;21.52;;;21.20;99.90;;;;;;4912887;29;20346;-76
2022/05/22 10:22:05;;;;;;;23.73;22.23;;;21.30;99.90;;;;;;4978010;28;20117;-75
2022/05/22 10:24:45;;;;;;;23.13;21.63;;;21.10;99.90;;;;;;4973543;28;20499;-74
2022/05/22 10:27:37;;;;;;;23.85;22.27;;;21.00;99.90;;;;;;4998474;28;20048;-76
2022/05/22 10:30:14;;;;;;;23.48;22.05;;;21.10;99.90;;;;;;4997186;28;20123;-76
2022/05/22 10:33:13;;;;;;;24.30;22.33;;;21.20;99.90;;;;;;4980925;28;20096;-75
2022/05/22 10:35:42;;;;;;;24.95;23.10;;;21.00;99.90;;;;;;4971268;28;20576;-76
2022/05/22 10:38:16;;;;;;;24.73;22.90;;;20.90;99.90;;;;;;5002223;28;20058;-74
2022/05/22 10:43:46;;;;;;;25.02;23.10;;;20.80;99.90;;;;;;4999287;28;20042;-75
2022/05/22 10:46:12;;;;;;;25.85;23.80;;;21.10;99.90;;;;;;4978426;28;20077;-75
2022/05/22 10:48:55;;;;;;;26.75;24.80;;;21.00;99.90;;;;;;4980840;28;20384;-75
2022/05/22 10:51:26;;;;;;;27.88;25.55;;;21.20;99.90;;;;;;4982199;28;20069;-75
2022/05/22 10:53:56;;;;;;;27.15;25.27;;;21.30;99.90;;;;;;4975187;28;20066;-75
2022/05/22 10:56:24;;;;;;;26.40;24.35;;;21.10;99.90;;;;;;4965065;28;20137;-73
2022/05/22 10:58:59;;;;;;;29.63;27.13;;;21.00;99.90;;;;;;4998067;28;20541;-76
2022/05/22 11:01:32;;;;;;;30.38;27.67;;;21.00;99.90;;;;;;4996275;28;20070;-75
2022/05/22 11:04:09;;;;;;;28.70;26.45;;;21.00;99.90;;;;;;4984808;28;20047;-76
2022/05/22 11:06:38;;;;;;;25.83;23.58;;;20.90;99.90;;;;;;4983950;28;20088;-75
2022/05/22 11:09:07;;;;;;;28.60;26.48;;;21.10;99.90;;;;;;4982477;28;20053;-74
2022/05/22 11:11:37;;;;;;;26.67;24.85;;;21.40;99.90;;;;;;4982442;28;20042;-76
2022/05/22 11:14:15;;;;;;;29.00;27.05;;;21.60;99.90;;;;;;5012197;28;20054;-75
2022/05/22 11:16:44;;;;;;;31.42;29.13;;;21.80;99.90;;;;;;5001034;28;20070;-76
2022/05/22 11:19:18;;;;;;;30.83;28.20;;;21.50;99.90;;;;;;5002424;28;20588;-75
2022/05/22 11:21:56;;;;;;;27.88;26.17;;;21.60;99.90;;;;;;4983769;28;20175;-74
2022/05/22 11:24:53;;;;;;;28.13;26.10;;;21.70;99.90;;;;;;4984264;28;20124;-75
2022/05/22 11:27:47;;;;;;;27.38;25.58;;;21.20;99.90;;;;;;4984063;28;20042;-77
2022/05/22 11:30:29;;;;;;;29.38;27.20;;;20.80;99.90;;;;;;4999180;28;20081;-77
2022/05/22 11:33:30;;;;;;;30.23;28.20;;;20.80;99.90;;;;;;4965628;28;20138;-74
2022/05/22 11:36:34;;;;;;;30.80;28.20;;;20.90;99.90;;;;;;5000271;28;20495;-76
2022/05/22 11:39:39;;;;;;;30.45;28.05;;;21.20;99.90;;;;;;5001003;28;20057;-76
2022/05/22 11:42:12;;;;;;;30.88;28.55;;;21.50;99.90;;;;;;4978309;28;20060;-76
2022/05/22 11:44:57;;;;;;;31.73;29.35;;;21.60;99.90;;;;;;4990910;28;20092;-76
2022/05/22 11:47:27;;;;;;;32.20;29.30;;;21.60;99.90;;;;;;5001159;28;20471;-76
2022/05/22 11:50:07;;;;;;;32.63;29.42;;;21.70;99.90;;;;;;5000493;28;20140;-76
2022/05/22 11:52:54;;;;;;;31.02;28.25;;;21.80;99.90;;;;;;4999237;28;20236;-76
2022/05/22 11:55:26;;;;;;;30.67;28.30;;;21.90;99.90;;;;;;4985216;28;20049;-76
2022/05/22 11:58:31;;;;;;;31.45;29.05;;;21.70;99.90;;;;;;4987937;28;20570;-76
2022/05/22 12:01:13;;;;;;;29.77;27.70;;;21.30;99.90;;;;;;4996947;28;20377;-76
2022/05/22 12:03:51;;;;;;;29.15;27.00;;;21.60;99.90;;;;;;4967141;28;20570;-75
2022/05/22 12:06:36;;;;;;;29.05;26.92;;;21.60;99.90;;;;;;4987113;28;20045;-76
2022/05/22 12:09:19;;;;;;;;;;;21.50;99.90;;;;;;5004101;28;20107;-76
2022/05/22 12:11:54;;;;;;;31.60;28.95;;;21.10;99.90;;;;;;4993569;28;20044;-76
2022/05/22 12:14:31;;;;;;;32.33;29.90;;;21.20;99.90;;;;;;5003591;28;20131;-76
2022/05/22 12:17:26;;;;;;;32.13;29.83;;;21.40;99.90;;;;;;4984506;28;20337;-76
2022/05/22 12:20:21;;;;;;;32.50;29.67;;;20.90;99.90;;;;;;4981953;28;20080;-76
2022/05/22 12:23:19;;;;;;;30.35;28.10;;;21.10;99.90;;;;;;4999705;28;20535;-75
2022/05/22 12:25:54;;;;;;;30.80;28.52;;;21.50;99.90;;;;;;4985532;28;20758;-76
2022/05/22 12:28:25;;;;;;;31.17;28.65;;;21.70;99.90;;;;;;4982423;28;20038;-76
2022/05/22 12:30:54;;;;;;;30.95;28.73;;;21.80;99.90;;;;;;4984982;28;20763;-75
2022/05/22 12:33:23;;;;;;;30.05;27.58;;;22.10;99.90;;;;;;4999873;28;20046;-76
2022/05/22 12:35:52;;;;;;;29.73;27.40;;;22.20;99.90;;;;;;5001624;28;20058;-76
2022/05/22 12:38:19;;;;;;;28.70;26.38;;;22.10;99.90;;;;;;5002430;28;20077;-76
2022/05/22 12:41:00;;;;;;;30.48;28.45;;;22.10;99.90;;;;;;4983574;28;20129;-76
2022/05/22 12:43:28;;;;;;;30.83;28.60;;;22.30;99.90;;;;;;5002373;28;20054;-76
2022/05/22 12:46:01;;;;;;;30.13;28.15;;;22.30;99.90;;;;;;5002423;28;20157;-75
2022/05/22 12:48:34;;;;;;;36.42;28.40;;;22.30;99.90;;;;;;5001608;28;20045;-75
2022/05/22 12:51:10;;;;;;;30.27;28.15;;;22.30;99.90;;;;;;5002226;28;20103;-76
2022/05/22 12:53:47;;;;;;;28.15;25.85;;;22.30;99.90;;;;;;4982290;28;20104;-76
2022/05/22 12:56:19;;;;;;;30.63;28.58;;;22.40;99.90;;;;;;4982935;28;20100;-75
2022/05/22 12:58:58;;;;;;;30.00;27.88;;;21.90;99.90;;;;;;5000173;28;20267;-78
2022/05/22 13:01:31;;;;;;;26.85;25.00;;;21.40;99.90;;;;;;5005555;28;20594;-78
2022/05/22 13:04:01;;;;;;;29.63;27.77;;;21.40;99.90;;;;;;4979657;28;20042;-78
2022/05/22 13:06:42;;;;;;;30.20;28.00;;;21.40;99.90;;;;;;4983682;28;20132;-78
2022/05/22 13:09:32;;;;;;;28.50;26.48;;;21.50;99.90;;;;;;4978787;28;20451;-78
2022/05/22 13:12:19;;;;;;;27.63;25.60;;;21.60;99.90;;;;;;4997848;28;20081;-78
2022/05/22 13:15:04;;;;;;;30.58;28.13;;;21.80;99.90;;;;;;4984292;28;20152;-78
2022/05/22 13:17:36;;;;;;;29.13;27.10;;;21.50;99.90;;;;;;5003550;28;20119;-78
2022/05/22 13:20:07;;;;;;;27.45;25.55;;;21.70;99.90;;;;;;4981240;28;20069;-77
2022/05/22 13:22:37;;;;;;;28.38;26.38;;;21.60;99.90;;;;;;4981790;28;20887;-77
2022/05/22 13:25:09;;;;;;;28.40;26.38;;;21.80;99.90;;;;;;4979384;28;20050;-76
2022/05/22 13:27:40;;;;;;;31.20;28.63;;;22.00;99.90;;;;;;4981004;28;20492;-76
2022/05/22 13:30:20;;;;;;;32.10;29.60;;;21.90;99.90;;;;;;4974476;28;20074;-77
2022/05/22 13:33:03;;;;;;;28.52;26.45;;;21.70;99.90;;;;;;4965543;28;20337;-78
2022/05/22 13:35:36;;;;;;;29.10;27.08;;;22.00;99.90;;;;;;4982182;28;20424;-78
2022/05/22 13:38:09;;;;;;;28.23;26.38;;;21.90;99.90;;;;;;5001257;28;20038;-78